Time;durP1;ratioP1;P1;durP2;ratioP2;P2;SDS_P1;SDS_P2;PMS_P1;PMS_P2;Temp;Humidity;BMP_temperature;BMP_pressure;BME280_temperature;BME280_humidity;BME280_pressure;Samples;Min_cycle;Max_cycle;Signal;HPM_P1;HPM_P2
2022/02/09 00:07:44;;;;;;;;;37.75;32.50;;;;;10.71;100.00;102669.72;5025382;28;45324;-81
2022/02/09 00:10:10;;;;;;;;;40.25;32.25;;;;;10.65;100.00;102667.59;4996801;28;45836;-84
2022/02/09 00:12:43;;;;;;;;;42.75;35.50;;;;;10.61;100.00;102669.84;4978657;28;47425;-83
2022/02/09 00:15:25;;;;;;;;;36.75;33.00;;;;;10.54;100.00;102671.06;4997093;28;46161;-84
2022/02/09 00:26:28;;;;;;;;;33.00;29.25;;;;;10.39;100.00;102652.69;4995841;28;45903;-82
2022/02/09 00:28:42;;;;;;;;;38.00;31.50;;;;;10.39;100.00;102652.69;4996515;28;45337;-84
2022/02/09 01:37:56;;;;;;;;;31.00;26.00;;;;;10.70;100.00;102629.06;4976155;28;45403;-84
2022/02/09 01:57:00;;;;;;;;;24.50;21.00;;;;;10.68;100.00;102623.78;4995508;28;45418;-83
2022/02/09 01:59:26;;;;;;;;;25.00;24.25;;;;;10.65;100.00;102630.41;4997685;28;45644;-82
2022/02/09 02:01:52;;;;;;;;;25.00;21.00;;;;;10.61;100.00;102618.91;4996365;28;45377;-84
2022/02/09 02:04:22;;;;;;;;;22.00;21.00;;;;;10.57;100.00;102613.41;4997316;28;45425;-84
2022/02/09 02:06:50;;;;;;;;;29.25;25.50;;;;;10.53;100.00;102620.94;4997536;28;45415;-83
2022/02/09 02:09:16;;;;;;;;;24.00;22.75;;;;;10.51;100.00;102614.75;4995854;27;45287;-83
2022/02/09 02:11:48;;;;;;;;;25.00;24.25;;;;;10.48;100.00;102614.53;4995592;27;45295;-82
2022/02/09 02:16:48;;;;;;;;;26.00;24.75;;;;;10.44;100.00;102606.41;4996101;28;45171;-84
2022/02/09 02:24:58;;;;;;;;;25.75;24.00;;;;;10.37;100.00;102611.13;4978205;28;45294;-83
2022/02/09 02:33:15;;;;;;;;;24.00;23.25;;;;;10.28;100.00;102593.97;4994201;28;45912;-83
2022/02/09 02:42:33;;;;;;;;;11.75;7.75;;;;;10.26;100.00;102574.84;4994933;28;45508;-84
2022/02/09 02:44:44;;;;;;;;;27.75;24.75;;;;;10.27;100.00;102576.66;5000172;28;45363;-83
2022/02/09 03:13:31;;;;;;;;;24.50;23.75;;;;;10.28;100.00;102542.22;4994402;28;45929;-83
2022/02/09 03:16:02;;;;;;;;;27.00;22.25;;;;;10.28;100.00;102537.03;4998981;28;45328;-81
2022/02/09 03:18:51;;;;;;;;;31.25;26.00;;;;;10.29;100.00;102531.94;4994077;28;45344;-81
2022/02/09 03:24:05;;;;;;;;;33.00;25.50;;;;;10.30;100.00;102522.53;4993180;28;45344;-82
2022/02/09 03:43:04;;;;;;;;;33.25;26.50;;;;;10.16;100.00;102495.59;4997098;28;45254;-80
2022/02/09 03:51:12;;;;;;;;;28.75;22.75;;;;;10.08;100.00;102497.63;4992911;28;45450;-82
2022/02/09 03:54:31;;;;;;;;;24.50;23.75;;;;;10.09;100.00;102495.94;4975279;28;45993;-83
2022/02/09 03:56:28;;;;;;;;;23.75;22.00;;;;;10.04;100.00;102488.72;5002717;28;46296;-83
2022/02/09 03:58:54;;;;;;;;;22.75;22.75;;;;;10.03;100.00;102492.13;4975227;28;45388;-83
2022/02/09 04:01:22;;;;;;;;;22.50;21.50;;;;;10.02;100.00;102503.25;4992782;28;45570;-80
2022/02/09 04:03:48;;;;;;;;;21.75;20.50;;;;;10.02;100.00;102495.50;4993261;27;45294;-83
2022/02/09 04:06:14;;;;;;;;;25.25;23.00;;;;;10.03;100.00;102494.72;4992673;28;46219;-82
2022/02/09 04:08:51;;;;;;;;;27.25;22.25;;;;;10.05;100.00;102484.47;4994346;28;45307;-83
2022/02/09 04:11:24;;;;;;;;;22.50;21.75;;;;;10.06;100.00;102483.69;4997231;28;45255;-82
2022/02/09 04:14:03;;;;;;;;;25.25;20.00;;;;;10.08;100.00;102489.88;4992844;28;45319;-82
2022/02/09 04:16:42;;;;;;;;;23.25;20.50;;;;;10.06;100.00;102483.69;4975139;28;46871;-83
2022/02/09 04:50:56;;;;;;;;;27.00;23.50;;;;;9.83;100.00;102485.47;4992426;28;45841;-84
2022/02/09 04:54:13;;;;;;;;;23.25;22.25;;;;;9.83;100.00;102482.88;4992496;28;45437;-84
2022/02/09 04:56:29;;;;;;;;;29.50;25.25;;;;;9.82;100.00;102493.13;4980540;28;45403;-83
2022/02/09 04:59:20;;;;;;;;;21.25;20.75;;;;;9.80;100.00;102490.38;4994881;28;46349;-83
2022/02/09 05:26:02;;;;;;;;;26.25;26.00;;;;;9.57;100.00;102499.00;4994758;28;45228;-79
2022/02/09 05:28:28;;;;;;;;;32.00;27.00;;;;;9.55;100.00;102508.31;4995330;28;45391;-83
2022/02/09 05:30:54;;;;;;;;;28.00;26.25;;;;;9.55;100.00;102504.06;4994616;28;45997;-81
2022/02/09 05:33:22;;;;;;;;;28.25;22.00;;;;;9.53;100.00;102503.06;4995673;27;45894;-79
2022/02/09 05:35:49;;;;;;;;;26.25;25.00;;;;;9.54;100.00;102509.09;4976588;28;45225;-77
2022/02/09 05:38:16;;;;;;;;;27.50;25.50;;;;;9.54;100.00;102503.94;4995008;27;45470;-77
2022/02/09 05:40:45;;;;;;;;;24.25;23.00;;;;;9.55;100.00;102501.50;4994412;28;46099;-77
2022/02/09 05:43:12;;;;;;;;;29.25;24.50;;;;;9.61;100.00;102503.59;4994534;28;45820;-78
2022/02/09 05:51:15;;;;;;;;;25.00;22.75;;;;;9.66;100.00;102497.13;4994773;28;45459;-78
2022/02/09 05:56:41;;;;;;;;;34.00;29.25;;;;;9.65;100.00;102492.72;5025412;28;45602;-78
2022/02/09 06:01:36;;;;;;;;;29.25;22.75;;;;;9.63;100.00;102498.56;4996915;28;45961;-83
2022/02/09 06:04:02;;;;;;;;;30.00;28.00;;;;;9.62;100.00;102500.25;4997756;27;45453;-83
2022/02/09 06:06:28;;;;;;;;;29.75;25.50;;;;;9.63;100.00;102493.41;5036898;27;45211;-84
2022/02/09 06:08:55;;;;;;;;;32.00;28.25;;;;;9.63;100.00;102503.75;5021737;27;45308;-83
2022/02/09 06:11:28;;;;;;;;;27.00;26.50;;;;;9.59;100.00;102500.91;4994049;28;45896;-84
2022/02/09 06:14:23;;;;;;;;;28.50;24.00;;;;;9.56;100.00;102504.97;4994074;28;45238;-84
2022/02/09 06:19:48;;;;;;;;;27.25;26.75;;;;;9.49;100.00;102511.34;5004970;28;45387;-85
2022/02/09 06:22:13;;;;;;;;;41.75;34.50;;;;;9.41;100.00;102512.44;4994625;27;45454;-84
2022/02/09 06:24:41;;;;;;;;;32.50;29.25;;;;;9.39;100.00;102508.84;4994051;27;45473;-83
2022/02/09 06:27:08;;;;;;;;;31.50;28.75;;;;;9.35;100.00;102510.28;4998205;28;45275;-84
2022/02/09 06:29:34;;;;;;;;;30.75;27.00;;;;;9.33;100.00;102519.59;5000032;28;45349;-84
2022/02/09 06:32:07;;;;;;;;;35.50;27.00;;;;;9.29;100.00;102513.31;4997517;27;45990;-84
2022/02/09 06:34:33;;;;;;;;;38.00;32.50;;;;;9.27;100.00;102512.28;5001245;28;45301;-80
2022/02/09 06:37:09;;;;;;;;;36.25;33.50;;;;;9.22;100.00;102512.69;4994151;28;45331;-84
2022/02/09 06:39:35;;;;;;;;;32.75;27.75;;;;;9.19;100.00;102505.63;4994226;28;45772;-83
2022/02/09 06:42:01;;;;;;;;;43.50;35.00;;;;;9.13;100.00;102507.72;4993853;28;45604;-84
2022/02/09 06:44:28;;;;;;;;;35.75;33.50;;;;;9.11;100.00;102509.28;4995249;27;45396;-95
2022/02/09 06:46:53;;;;;;;;;29.25;28.00;;;;;9.06;100.00;102508.94;4995936;28;45391;-87
2022/02/09 06:49:21;;;;;;;;;34.00;32.25;;;;;9.04;100.00;102507.91;4997603;28;45487;-87
2022/02/09 06:51:47;;;;;;;;;40.75;35.25;;;;;9.03;100.00;102506.09;5000621;28;45983;-86
2022/02/09 06:54:17;;;;;;;;;37.50;31.75;;;;;9.04;100.00;102509.56;5000609;28;45723;-85
2022/02/09 06:59:30;;;;;;;;;49.50;39.00;;;;;8.97;100.00;102511.69;4987190;28;45362;-80
2022/02/09 07:02:05;;;;;;;;;41.00;36.25;;;;;8.94;100.00;102519.19;4988627;28;45999;-80
2022/02/09 07:04:33;;;;;;;;;45.00;37.00;;;;;8.93;100.00;102516.50;4993479;28;45517;-84
2022/02/09 07:06:59;;;;;;;;;41.50;37.25;;;;;8.89;100.00;102523.09;4994433;28;45433;-82
2022/02/09 07:09:27;;;;;;;;;39.50;35.75;;;;;8.84;100.00;102521.81;4979983;28;45245;-88
2022/02/09 07:11:52;;;;;;;;;50.00;38.75;;;;;8.76;100.00;102531.53;5022363;27;45628;-90
2022/02/09 07:14:20;;;;;;;;;48.00;39.25;;;;;8.70;100.00;102528.47;4993778;27;45527;-85
2022/02/09 07:16:46;;;;;;;;;49.50;40.75;;;;;8.62;100.00;102522.69;4998237;27;45248;-84
2022/02/09 07:19:12;;;;;;;;;32.75;28.75;;;;;8.57;100.00;102524.00;4982440;28;45313;-89
2022/02/09 07:21:39;;;;;;;;;51.25;43.00;;;;;8.51;100.00;102527.00;4984061;28;48033;-85
2022/02/09 07:24:11;;;;;;;;;56.25;44.00;;;;;8.43;100.00;102535.75;5006572;27;45162;-86
2022/02/09 07:29:12;;;;;;;;;55.50;43.75;;;;;8.33;100.00;102534.13;4994959;28;45452;-84
2022/02/09 07:31:38;;;;;;;;;53.50;43.50;;;;;8.31;100.00;102530.50;5000079;28;45802;-83
2022/02/09 07:34:04;;;;;;;;;55.00;43.50;;;;;8.27;100.00;102531.00;5060010;27;45581;-84
2022/02/09 07:36:35;;;;;;;;;52.00;41.50;;;;;8.21;100.00;102536.56;5065601;27;45463;-86
2022/02/09 07:39:05;;;;;;;;;53.75;42.75;;;;;8.19;100.00;102532.06;5099255;27;45427;-83
2022/02/09 07:41:31;;;;;;;;;45.50;39.00;;;;;8.17;100.00;102525.88;5077054;27;46123;-86
2022/02/09 07:49:06;;;;;;;;;52.25;43.75;;;;;8.11;100.00;102525.38;5002411;28;45423;-91
2022/02/09 07:51:56;;;;;;;;;51.25;40.25;;;;;8.06;100.00;102519.84;5000692;28;46489;-89
2022/02/09 07:54:24;;;;;;;;;46.00;39.00;;;;;8.06;100.00;102519.84;4999648;28;45251;-83
2022/02/09 07:56:50;;;;;;;;;51.25;43.00;;;;;8.02;100.00;102521.28;4992121;28;45493;-85
2022/02/09 07:59:16;;;;;;;;;43.25;37.00;;;;;7.96;100.00;102514.69;4976056;28;45438;-88
2022/02/09 08:01:42;;;;;;;;;48.50;41.00;;;;;7.97;100.00;102516.50;4958040;28;47016;-84
2022/02/09 08:04:09;;;;;;;;;37.50;36.00;;;;;7.95;100.00;102520.63;4976394;28;45926;-80
2022/02/09 08:06:37;;;;;;;;;42.75;38.00;;;;;7.92;100.00;102515.22;4994551;28;45423;-87
2022/02/09 08:09:50;;;;;;;;;48.50;38.25;;;;;7.92;100.00;102507.47;4994148;27;45470;-88
2022/02/09 08:12:00;;;;;;;;;43.00;37.25;;;;;7.93;100.00;102497.31;5006990;27;45675;-89
2022/02/09 08:33:19;;;;;;;;;45.75;38.00;;;;;8.02;100.00;102489.41;5002576;28;45568;-90
2022/02/09 08:35:49;;;;;;;;;49.50;40.50;;;;;8.03;100.00;102484.38;5001535;28;45182;-92
2022/02/09 08:38:16;;;;;;;;;52.50;39.00;;;;;8.09;100.00;102477.91;5005240;27;45470;-84
2022/02/09 08:40:43;;;;;;;;;44.50;38.50;;;;;8.08;100.00;102483.84;4985336;28;45466;-82
2022/02/09 08:43:10;;;;;;;;;54.00;42.25;;;;;8.11;100.00;102485.00;5004027;28;46035;-77
2022/02/09 08:45:37;;;;;;;;;54.25;42.75;;;;;8.14;100.00;102481.78;4986080;28;46130;-81
2022/02/09 08:48:03;;;;;;;;;51.25;40.25;;;;;8.20;100.00;102478.03;4999754;28;45420;-91
2022/02/09 08:50:29;;;;;;;;;44.75;37.25;;;;;8.25;100.00;102491.31;4998839;28;45631;-91
2022/02/09 08:52:55;;;;;;;;;52.25;41.25;;;;;8.28;100.00;102483.78;5000820;28;46467;-88
2022/02/09 08:55:21;;;;;;;;;50.75;40.25;;;;;8.32;100.00;102474.63;5003068;28;45419;-83
2022/02/09 08:57:47;;;;;;;;;49.50;38.75;;;;;8.37;100.00;102479.38;5008926;28;45343;-87
2022/02/09 09:00:37;;;;;;;;;51.50;41.75;;;;;8.44;100.00;102474.72;5005643;28;45241;-80
2022/02/09 09:03:20;;;;;;;;;54.75;41.25;;;;;8.54;100.00;102471.22;5006173;28;46095;-78
2022/02/09 09:05:48;;;;;;;;;56.00;42.50;;;;;8.58;100.00;102465.53;4998963;28;45305;-79
2022/02/09 09:11:08;;;;;;;;;71.75;54.25;;;;;8.71;100.00;102455.41;4998409;28;45461;-83
2022/02/09 09:17:13;;;;;;;;;50.50;40.50;;;;;8.87;100.00;102446.25;5014227;28;45975;-83
2022/02/09 10:03:30;;;;;;;;;28.25;25.00;;;;;9.94;100.00;102420.66;5027885;28;45438;-88
2022/02/09 10:33:58;;;;;;;;;29.50;27.75;;;;;10.45;100.00;102420.06;5004140;28;45284;-90
2022/02/09 10:36:24;;;;;;;;;29.75;26.75;;;;;10.50;100.00;102416.13;5003184;28;45499;-90
2022/02/09 10:39:12;;;;;;;;;29.50;27.75;;;;;10.54;100.00;102412.06;4984071;28;45594;-91
2022/02/09 10:42:14;;;;;;;;;30.25;28.00;;;;;10.57;100.00;102420.06;5000476;28;46351;-90
2022/02/09 10:44:52;;;;;;;;;38.50;32.50;;;;;10.61;100.00;102414.28;4998023;28;45468;-86
2022/02/09 10:47:34;;;;;;;;;30.25;27.75;;;;;10.65;100.00;102402.44;5000033;27;45299;-91
2022/02/09 10:50:33;;;;;;;;;31.75;31.75;;;;;10.68;100.00;102403.59;4997892;28;45394;-92
2022/02/09 10:53:02;;;;;;;;;35.00;28.75;;;;;10.72;100.00;102398.59;4997827;28;45245;-82
2022/02/09 10:55:36;;;;;;;;;37.25;32.00;;;;;10.74;100.00;102387.59;4998879;28;45240;-91
2022/02/09 10:58:31;;;;;;;;;33.50;31.25;;;;;10.78;100.00;102383.50;5006198;28;45492;-87
2022/02/09 11:00:57;;;;;;;;;27.75;27.50;;;;;10.80;100.00;102376.72;5008201;28;45406;-85
2022/02/09 11:03:27;;;;;;;;;32.00;26.75;;;;;10.84;100.00;102379.66;4980424;28;45698;-86
2022/02/09 11:05:55;;;;;;;;;29.00;27.75;;;;;10.87;100.00;102376.38;4976843;28;45162;-90
2022/02/09 11:08:21;;;;;;;;;35.00;32.50;;;;;10.90;100.00;102378.25;4990232;28;45279;-81
2022/02/09 11:10:50;;;;;;;;;26.00;25.50;;;;;10.94;100.00;102369.91;5001949;28;45433;-82
2022/02/09 11:13:16;;;;;;;;;15.25;15.25;;;;;10.99;100.00;102376.28;5003857;27;45302;-86
2022/02/09 11:15:47;;;;;;;;;29.75;25.75;;;;;11.02;100.00;102373.00;5007413;28;45189;-88
2022/02/09 11:18:21;;;;;;;;;29.25;24.00;;;;;11.06;99.87;102370.75;4992854;28;45255;-82
2022/02/09 11:20:57;;;;;;;;;37.50;28.75;;;;;11.09;99.42;102367.47;5014945;28;45406;-85
2022/02/09 11:23:46;;;;;;;;;32.75;28.50;;;;;11.10;100.00;102364.09;5073613;28;45771;-84
2022/02/09 11:27:02;;;;;;;;;33.25;27.75;;;;;11.15;100.00;102370.47;5004129;28;45224;-82
2022/02/09 11:37:46;;;;;;;;;40.25;32.50;;;;;11.30;99.17;102352.44;4999149;27;45734;-91
2022/02/09 11:40:39;;;;;;;;;29.75;27.25;;;;;11.35;98.95;102350.16;4998155;28;45305;-87
2022/02/09 11:43:42;;;;;;;;;33.50;30.50;;;;;11.41;98.04;102354.06;4996196;28;45231;-83
2022/02/09 11:46:37;;;;;;;;;31.75;30.00;;;;;11.42;99.46;102345.47;5003987;28;45758;-87
2022/02/09 12:09:46;;;;;;;;;35.50;32.50;;;;;11.66;97.84;102313.28;4995009;28;45438;-89
2022/02/09 12:12:17;;;;;;;;;38.50;33.00;;;;;11.70;97.42;102321.34;5066924;27;45125;-87
2022/02/09 12:17:51;;;;;;;;;33.75;29.25;;;;;11.79;98.10;102308.06;4989037;28;45343;-85
2022/02/09 12:20:31;;;;;;;;;40.50;32.75;;;;;11.81;96.56;102305.56;5002586;28;46182;-79
2022/02/09 12:23:14;;;;;;;;;41.25;33.75;;;;;11.84;96.95;102301.47;4957995;28;45277;-83
2022/02/09 12:25:45;;;;;;;;;37.50;33.75;;;;;11.86;96.96;102311.94;5005895;28;45248;-86
2022/02/09 12:28:18;;;;;;;;;39.75;32.00;;;;;11.87;96.91;102306.88;5008626;27;45458;-82
2022/02/09 12:30:45;;;;;;;;;30.75;29.00;;;;;11.92;96.40;102304.56;4989917;28;47888;-85
2022/02/09 12:33:24;;;;;;;;;37.75;32.75;;;;;12.01;96.48;102289.59;4983857;28;45406;-88
2022/02/09 12:35:51;;;;;;;;;39.50;32.00;;;;;12.66;97.83;102288.34;5009189;28;44727;-91
2022/02/09 12:38:30;;;;;;;;;44.75;35.25;;;;;12.83;93.18;102283.25;4985528;28;45449;-84
2022/02/09 12:41:19;;;;;;;;;37.75;31.75;;;;;12.78;92.06;102277.78;4998132;27;46686;-85
2022/02/09 12:44:00;;;;;;;;;28.25;25.00;;;;;12.75;91.56;102274.13;5002847;28;45318;-87
2022/02/09 12:46:28;;;;;;;;;32.25;28.75;;;;;12.70;91.97;102263.44;5001097;28;45364;-84
2022/02/09 12:48:55;;;;;;;;;32.00;28.50;;;;;12.69;91.83;102264.25;4983446;28;45349;-83
2022/02/09 12:51:28;;;;;;;;;32.00;28.00;;;;;12.70;92.64;102264.31;5007534;28;45627;-90
2022/02/09 12:53:55;;;;;;;;;31.25;27.75;;;;;12.70;91.14;102258.25;5004385;28;45233;-87
2022/02/09 12:56:27;;;;;;;;;23.75;22.25;;;;;12.72;91.35;102255.72;5001492;28;45168;-90
2022/02/09 12:59:02;;;;;;;;;33.25;30.25;;;;;12.75;91.46;102259.41;4984662;28;45360;-89
2022/02/09 13:01:58;;;;;;;;;30.25;27.25;;;;;12.83;90.95;102257.25;4981565;28;47122;-90
2022/02/09 13:04:35;;;;;;;;;29.25;29.25;;;;;12.89;91.33;102257.63;4992231;28;45394;-85
2022/02/09 13:07:12;;;;;;;;;35.50;30.25;;;;;12.99;89.81;102252.16;5002949;28;45276;-88
2022/02/09 13:09:44;;;;;;;;;31.25;28.50;;;;;13.07;89.46;102244.78;4995365;28;45425;-79
2022/02/09 13:12:09;;;;;;;;;32.50;28.50;;;;;13.22;90.10;102243.88;4998062;28;45378;-89
2022/02/09 13:14:45;;;;;;;;;33.00;27.75;;;;;13.32;88.49;102241.91;5003945;28;45525;-89
2022/02/09 13:17:53;;;;;;;;;26.50;25.00;;;;;13.45;87.42;102245.22;5011302;28;45256;-93
2022/02/09 14:14:09;;;;;;;;;33.00;28.75;;;;;16.37;71.50;102167.44;4994633;28;45260;-96
2022/02/09 14:35:47;;;;;;;;;27.25;24.75;;;;;16.08;72.25;102153.13;5005704;27;44729;-95
2022/02/09 14:52:10;;;;;;;;;29.25;28.00;;;;;16.13;69.78;102143.75;5042688;28;45366;-92
2022/02/09 14:54:48;;;;;;;;;31.25;28.50;;;;;16.11;70.22;102145.41;5004332;28;45177;-92
2022/02/09 14:57:19;;;;;;;;;26.00;24.00;;;;;16.09;69.91;102141.81;5002203;28;45271;-93
2022/02/09 14:59:52;;;;;;;;;31.00;29.00;;;;;16.11;70.04;102141.91;5006624;28;44739;-95
2022/02/09 15:02:36;;;;;;;;;31.75;28.50;;;;;16.12;70.01;102135.88;5007935;28;45173;-94
2022/02/09 15:10:20;;;;;;;;;26.50;24.25;;;;;16.09;71.02;102121.84;4999683;28;45319;-92
2022/02/09 15:12:57;;;;;;;;;26.50;24.50;;;;;16.11;69.04;102114.06;4997850;28;45445;-90
2022/02/09 15:15:36;;;;;;;;;23.00;21.50;;;;;16.09;70.31;102110.47;4982293;28;45766;-91
2022/02/09 15:23:24;;;;;;;;;21.75;20.75;;;;;16.07;67.40;102109.53;5002558;28;45595;-91
2022/02/09 15:25:49;;;;;;;;;23.00;22.00;;;;;16.07;68.20;102118.25;5005014;28;45862;-91
2022/02/09 15:28:15;;;;;;;;;27.75;25.50;;;;;16.05;68.46;102109.47;5004682;28;45297;-91
2022/02/09 15:30:51;;;;;;;;;28.00;25.25;;;;;16.05;68.64;102111.19;5006645;28;45526;-91
2022/02/09 15:33:23;;;;;;;;;28.00;23.50;;;;;16.06;69.38;102107.75;4973522;28;47580;-93
2022/02/09 15:35:55;;;;;;;;;24.50;22.75;;;;;16.06;68.90;102100.78;5003258;28;45434;-88
2022/02/09 15:38:25;;;;;;;;;25.50;21.25;;;;;16.05;69.08;102105.97;5012018;28;44738;-85
2022/02/09 15:59:42;;;;;;;;;25.50;22.50;;;;;15.94;68.46;102084.59;5003616;28;45331;-93
2022/02/09 16:10:50;;;;;;;;;23.75;21.50;;;;;15.94;71.50;102081.97;4997645;28;45309;-90
2022/02/09 16:19:30;;;;;;;;;22.00;22.00;;;;;15.91;71.13;102066.19;5013347;28;45189;-93
2022/02/09 16:24:00;;;;;;;;;20.00;18.00;;;;;15.75;70.23;102075.94;5002001;28;45284;-87
2022/02/09 16:45:15;;;;;;;;;20.75;17.50;;;;;14.92;73.01;102074.78;4994638;28;45418;-85
2022/02/09 16:50:17;;;;;;;;;19.25;18.00;;;;;14.81;73.60;102071.63;5018846;27;45417;-87
2022/02/09 16:52:57;;;;;;;;;19.25;17.00;;;;;14.75;74.00;102073.97;4996840;28;45484;-84
2022/02/09 17:19:36;;;;;;;;;13.25;13.25;;;;;14.29;77.48;102059.56;4997476;27;45774;-85
2022/02/09 17:22:03;;;;;;;;;17.75;13.25;;;;;14.24;77.70;102060.22;5010693;28;45260;-90
2022/02/09 17:24:28;;;;;;;;;15.75;15.00;;;;;14.23;78.04;102055.81;4997472;28;44780;-88
2022/02/09 17:26:55;;;;;;;;;15.75;14.00;;;;;14.21;78.12;102052.25;5004401;27;45170;-80
2022/02/09 17:29:27;;;;;;;;;19.25;14.50;;;;;14.21;78.33;102054.84;5032009;27;45303;-83
2022/02/09 17:32:00;;;;;;;;;16.25;13.50;;;;;14.18;78.98;102049.50;5096232;27;45188;-89
2022/02/09 17:37:34;;;;;;;;;13.50;13.00;;;;;14.17;78.75;102059.81;5002000;28;45392;-85
2022/02/09 17:53:33;;;;;;;;;18.25;14.50;;;;;14.09;80.10;102069.88;5001100;28;45406;-89
2022/02/09 17:58:31;;;;;;;;;21.75;15.25;;;;;14.05;80.50;102062.72;5003047;27;45321;-90
2022/02/09 18:00:58;;;;;;;;;20.75;18.00;;;;;14.01;81.06;102061.69;4996522;28;46137;-83
2022/02/09 18:03:25;;;;;;;;;18.75;16.25;;;;;14.02;81.37;102075.56;5000504;28;45236;-83
2022/02/09 18:05:54;;;;;;;;;15.25;15.25;;;;;13.98;81.47;102076.25;4986087;28;45354;-80
2022/02/09 18:08:33;;;;;;;;;22.25;18.00;;;;;13.97;81.83;102070.13;4986367;28;45272;-77
2022/02/09 18:11:10;;;;;;;;;18.75;17.25;;;;;13.96;82.15;102068.34;5006832;27;45699;-81
2022/02/09 18:29:50;;;;;;;;;29.00;27.00;;;;;13.83;83.74;102072.03;4997453;28;45479;-83
2022/02/09 19:04:38;;;;;;;;;36.00;32.25;;;;;12.88;98.08;102053.09;5052550;27;45693;-82
2022/02/09 19:26:13;;;;;;;;;45.00;34.50;;;;;12.66;100.00;102038.91;5000291;28;45355;-86
2022/02/09 19:26:47;;;;;;;;;46.00;36.25;;;;;12.63;100.00;102030.94;4999882;28;45712;-89
2022/02/09 19:29:54;;;;;;;;;43.75;35.75;;;;;12.61;100.00;102035.16;4969019;28;46396;-84
2022/02/09 19:32:33;;;;;;;;;42.25;36.75;;;;;12.55;100.00;102029.63;4985061;28;45311;-86
2022/02/09 19:46:12;;;;;;;;;47.75;38.50;;;;;12.28;100.00;102023.75;4995421;28;45231;-86
2022/02/09 19:48:45;;;;;;;;;39.75;35.00;;;;;12.27;100.00;102019.34;5067256;27;45680;-81
2022/02/09 19:51:33;;;;;;;;;44.25;35.00;;;;;12.27;100.00;102024.56;4980273;28;45473;-87
2022/02/09 19:56:34;;;;;;;;;47.25;36.50;;;;;12.24;100.00;102012.28;5003530;27;45578;-84
2022/02/09 19:59:12;;;;;;;;;48.25;37.75;;;;;12.22;100.00;102019.97;4992593;28;45903;-82
2022/02/09 20:01:38;;;;;;;;;44.00;34.00;;;;;12.19;100.00;102019.81;5004082;27;45851;-82
2022/02/09 20:04:05;;;;;;;;;43.75;35.00;;;;;12.18;100.00;102015.44;5096944;27;45386;-85
2022/02/09 20:06:31;;;;;;;;;41.75;34.75;;;;;12.18;100.00;102009.31;5079740;27;45432;-84
2022/02/09 20:08:57;;;;;;;;;44.50;37.25;;;;;12.18;100.00;102011.94;5096513;27;45350;-86
2022/02/09 20:11:23;;;;;;;;;47.25;40.00;;;;;12.17;100.00;102012.72;5097775;27;45383;-86
2022/02/09 20:13:53;;;;;;;;;45.50;38.25;;;;;12.17;100.00;102010.13;5015800;27;45398;-83
2022/02/09 20:16:24;;;;;;;;;49.75;39.50;;;;;12.15;100.00;102004.88;4995038;28;46633;-84
2022/02/09 20:18:51;;;;;;;;;48.25;37.75;;;;;12.12;100.00;102006.41;4992686;28;45464;-84
2022/02/09 20:21:28;;;;;;;;;41.25;34.00;;;;;12.06;100.00;102005.22;4975767;28;45378;-87
2022/02/09 20:23:55;;;;;;;;;43.25;36.00;;;;;12.06;100.00;101994.84;4993369;28;45446;-87
2022/02/09 20:26:23;;;;;;;;;46.75;37.75;;;;;12.05;100.00;102003.41;4996913;28;45509;-87
2022/02/09 20:29:09;;;;;;;;;48.50;38.50;;;;;12.03;100.00;102004.16;4995980;28;46199;-87
2022/02/09 20:31:44;;;;;;;;;50.00;39.50;;;;;11.99;100.00;102004.75;4963001;28;45504;-83
2022/02/09 20:34:23;;;;;;;;;48.75;41.00;;;;;11.90;100.00;102005.13;4968278;28;45381;-86
2022/02/09 20:36:50;;;;;;;;;53.25;45.00;;;;;11.84;100.00;102004.72;4996663;28;45462;-84
2022/02/09 20:39:21;;;;;;;;;51.75;42.50;;;;;11.79;100.00;102007.06;4997674;27;46475;-87
2022/02/09 20:41:47;;;;;;;;;52.75;41.50;;;;;11.76;100.00;102012.97;4997728;27;45931;-82
2022/02/09 20:44:24;;;;;;;;;48.25;41.75;;;;;11.70;100.00;102009.13;4997650;27;45493;-84
2022/02/09 20:46:52;;;;;;;;;54.75;45.00;;;;;11.70;100.00;102002.25;4997690;28;45224;-80
2022/02/09 20:49:18;;;;;;;;;53.00;41.75;;;;;11.70;100.00;101998.72;4998767;27;46206;-86
2022/02/09 20:51:44;;;;;;;;;9.25;6.50;;;;;11.68;100.00;102010.72;4980750;28;45402;-85
2022/02/09 20:54:13;;;;;;;;;51.00;40.25;;;;;11.68;100.00;102010.72;4997027;28;45337;-84
2022/02/09 20:56:39;;;;;;;;;49.25;40.75;;;;;11.66;100.00;102012.34;4997283;28;45366;-86
2022/02/09 20:59:09;;;;;;;;;54.00;40.75;;;;;11.65;100.00;102002.78;4996138;28;46111;-86
2022/02/09 21:01:46;;;;;;;;;49.00;40.25;;;;;11.64;100.00;102008.75;4996646;28;45747;-84
2022/02/09 21:04:15;;;;;;;;;51.75;42.00;;;;;11.59;100.00;102008.50;5082519;27;45407;-86
2022/02/09 21:09:28;;;;;;;;;51.50;39.25;;;;;11.52;100.00;102008.91;5100283;27;45513;-87
2022/02/09 21:15:01;;;;;;;;;48.00;39.25;;;;;11.45;100.00;102010.22;4996930;28;45340;-86
2022/02/09 21:18:28;;;;;;;;;60.00;46.25;;;;;11.40;100.00;102009.06;4993652;27;45449;-86
2022/02/09 21:20:46;;;;;;;;;52.00;42.00;;;;;11.38;100.00;102014.16;5001549;27;46071;-86
2022/02/09 21:53:10;;;;;;;;;52.25;43.25;;;;;10.83;100.00;102050.50;4992663;28;45912;-83
2022/02/09 22:01:32;;;;;;;;;51.00;42.00;;;;;10.39;100.00;102039.06;4993927;28;45338;-82
2022/02/09 22:07:24;;;;;;;;;52.75;42.25;;;;;10.16;100.00;102050.44;4993144;28;45991;-83
2022/02/09 22:16:23;;;;;;;;;43.50;35.50;;;;;9.99;100.00;102033.81;4994154;28;45484;-84
2022/02/09 22:29:04;;;;;;;;;50.75;39.50;;;;;9.99;100.00;102002.78;4993647;28;45861;-83
2022/02/09 22:55:14;;;;;;;;;36.50;34.25;;;;;10.01;100.00;101981.38;4992911;28;45374;-85
2022/02/09 22:57:50;;;;;;;;;48.00;37.75;;;;;10.00;100.00;101979.56;4993162;28;46131;-84
2022/02/09 23:03:13;;;;;;;;;47.75;38.00;;;;;9.96;100.00;101976.69;4994148;28;45326;-82
2022/02/09 23:05:51;;;;;;;;;41.25;36.00;;;;;9.95;100.00;101980.94;4993994;27;45500;-82
2022/02/09 23:09:12;;;;;;;;;45.50;37.75;;;;;9.96;100.00;101976.69;4992858;28;45940;-81
2022/02/09 23:16:58;;;;;;;;;50.50;41.25;;;;;9.91;100.00;101986.75;4994915;28;45354;-86
2022/02/09 23:22:29;;;;;;;;;49.25;40.00;;;;;9.86;100.00;101973.50;4992955;28;45228;-84
2022/02/09 23:54:47;;;;;;;;;49.75;39.00;;;;;10.05;100.00;101959.19;4995825;28;45272;-86
